sensor_id;sensor_type;location;lat;lon;timestamp;temperature;humidity
44461;DHT22;30162;53.642;10.640;2023-04-25T00:02:11;12.40;91.90
44461;DHT22;30162;53.642;10.640;2023-04-25T00:04:37;12.50;91.90
44461;DHT22;30162;53.642;10.640;2023-04-25T00:07:03;12.50;91.60
44461;DHT22;30162;53.642;10.640;2023-04-25T00:09:29;12.50;91.60
44461;DHT22;30162;53.642;10.640;2023-04-25T00:11:55;12.50;91.90
44461;DHT22;30162;53.642;10.640;2023-04-25T00:14:20;12.40;91.50
44461;DHT22;30162;53.642;10.640;2023-04-25T00:16:46;12.30;91.80
44461;DHT22;30162;53.642;10.640;2023-04-25T00:19:13;12.30;91.80
44461;DHT22;30162;53.642;10.640;2023-04-25T00:21:39;12.30;91.70
44461;DHT22;30162;53.642;10.640;2023-04-25T00:24:06;12.10;91.40
44461;DHT22;30162;53.642;10.640;2023-04-25T00:26:34;12.10;91.90
44461;DHT22;30162;53.642;10.640;2023-04-25T00:29:00;12.20;91.90
44461;DHT22;30162;53.642;10.640;2023-04-25T00:31:25;12.30;91.80
44461;DHT22;30162;53.642;10.640;2023-04-25T00:33:51;12.30;91.70
44461;DHT22;30162;53.642;10.640;2023-04-25T00:36:16;12.30;91.80
44461;DHT22;30162;53.642;10.640;2023-04-25T00:38:43;12.40;92.10
44461;DHT22;30162;53.642;10.640;2023-04-25T00:41:08;12.50;92.10
44461;DHT22;30162;53.642;10.640;2023-04-25T00:43:36;12.60;91.70
44461;DHT22;30162;53.642;10.640;2023-04-25T00:46:02;12.40;91.70
44461;DHT22;30162;53.642;10.640;2023-04-25T00:48:27;12.40;91.60
44461;DHT22;30162;53.642;10.640;2023-04-25T00:50:57;12.30;91.80
44461;DHT22;30162;53.642;10.640;2023-04-25T00:53:24;12.10;91.90
44461;DHT22;30162;53.642;10.640;2023-04-25T00:55:50;12.00;92.10
44461;DHT22;30162;53.642;10.640;2023-04-25T00:58:19;11.90;91.80
44461;DHT22;30162;53.642;10.640;2023-04-25T01:00:46;11.90;92.00
44461;DHT22;30162;53.642;10.640;2023-04-25T01:03:14;11.90;92.00
44461;DHT22;30162;53.642;10.640;2023-04-25T01:05:41;12.00;91.70
44461;DHT22;30162;53.642;10.640;2023-04-25T01:08:07;12.10;91.30
44461;DHT22;30162;53.642;10.640;2023-04-25T01:10:33;11.90;91.20
44461;DHT22;30162;53.642;10.640;2023-04-25T01:12:58;11.70;91.60
44461;DHT22;30162;53.642;10.640;2023-04-25T01:15:24;11.60;91.20
44461;DHT22;30162;53.642;10.640;2023-04-25T01:17:50;11.80;91.40
44461;DHT22;30162;53.642;10.640;2023-04-25T01:20:16;11.90;91.30
44461;DHT22;30162;53.642;10.640;2023-04-25T01:22:42;11.90;91.00
44461;DHT22;30162;53.642;10.640;2023-04-25T01:25:08;11.90;90.80
44461;DHT22;30162;53.642;10.640;2023-04-25T01:27:36;11.80;91.00
44461;DHT22;30162;53.642;10.640;2023-04-25T01:30:03;11.40;91.10
44461;DHT22;30162;53.642;10.640;2023-04-25T01:32:30;11.40;91.30
44461;DHT22;30162;53.642;10.640;2023-04-25T01:35:06;11.70;91.40
44461;DHT22;30162;53.642;10.640;2023-04-25T01:37:36;11.80;91.10
44461;DHT22;30162;53.642;10.640;2023-04-25T01:40:02;11.80;90.90
44461;DHT22;30162;53.642;10.640;2023-04-25T01:42:31;11.80;90.80
44461;DHT22;30162;53.642;10.640;2023-04-25T01:44:56;11.80;90.90
44461;DHT22;30162;53.642;10.640;2023-04-25T01:47:22;11.70;90.90
44461;DHT22;30162;53.642;10.640;2023-04-25T01:49:47;11.60;90.70
44461;DHT22;30162;53.642;10.640;2023-04-25T01:52:13;11.50;90.60
44461;DHT22;30162;53.642;10.640;2023-04-25T01:54:39;11.60;91.00
44461;DHT22;30162;53.642;10.640;2023-04-25T01:57:09;11.50;91.00
44461;DHT22;30162;53.642;10.640;2023-04-25T01:59:35;11.60;90.80
44461;DHT22;30162;53.642;10.640;2023-04-25T02:02:01;11.60;90.80
44461;DHT22;30162;53.642;10.640;2023-04-25T02:04:29;11.60;90.70
44461;DHT22;30162;53.642;10.640;2023-04-25T02:06:55;11.50;90.60
44461;DHT22;30162;53.642;10.640;2023-04-25T02:09:20;11.40;90.50
44461;DHT22;30162;53.642;10.640;2023-04-25T02:11:46;11.20;90.60
44461;DHT22;30162;53.642;10.640;2023-04-25T02:14:11;11.50;90.60
44461;DHT22;30162;53.642;10.640;2023-04-25T02:16:37;11.60;90.60
44461;DHT22;30162;53.642;10.640;2023-04-25T02:19:05;11.50;90.40
44461;DHT22;30162;53.642;10.640;2023-04-25T02:21:32;11.50;90.30
44461;DHT22;30162;53.642;10.640;2023-04-25T02:23:57;11.60;90.20
44461;DHT22;30162;53.642;10.640;2023-04-25T02:26:23;11.50;89.90
44461;DHT22;30162;53.642;10.640;2023-04-25T02:28:49;11.40;90.20
44461;DHT22;30162;53.642;10.640;2023-04-25T02:31:16;11.40;90.00
44461;DHT22;30162;53.642;10.640;2023-04-25T02:33:41;11.40;89.70
44461;DHT22;30162;53.642;10.640;2023-04-25T02:36:07;11.40;89.40
44461;DHT22;30162;53.642;10.640;2023-04-25T02:38:33;11.30;90.00
44461;DHT22;30162;53.642;10.640;2023-04-25T02:40:59;11.10;89.30
44461;DHT22;30162;53.642;10.640;2023-04-25T02:43:25;10.90;90.00
44461;DHT22;30162;53.642;10.640;2023-04-25T02:45:50;11.20;89.90
44461;DHT22;30162;53.642;10.640;2023-04-25T02:48:16;11.20;88.90
44461;DHT22;30162;53.642;10.640;2023-04-25T02:50:42;11.10;89.00
44461;DHT22;30162;53.642;10.640;2023-04-25T02:53:07;11.20;89.40
44461;DHT22;30162;53.642;10.640;2023-04-25T02:55:33;11.20;88.80
44461;DHT22;30162;53.642;10.640;2023-04-25T02:57:58;10.60;86.30
44461;DHT22;30162;53.642;10.640;2023-04-25T03:00:24;10.70;87.50
44461;DHT22;30162;53.642;10.640;2023-04-25T03:02:50;10.70;87.60
44461;DHT22;30162;53.642;10.640;2023-04-25T03:05:16;10.70;87.10
44461;DHT22;30162;53.642;10.640;2023-04-25T03:07:42;10.90;87.80
44461;DHT22;30162;53.642;10.640;2023-04-25T03:10:09;11.00;87.20
44461;DHT22;30162;53.642;10.640;2023-04-25T03:12:34;11.00;86.50
44461;DHT22;30162;53.642;10.640;2023-04-25T03:15:00;10.90;86.80
44461;DHT22;30162;53.642;10.640;2023-04-25T03:17:26;10.90;86.60
44461;DHT22;30162;53.642;10.640;2023-04-25T03:19:51;10.70;86.90
44461;DHT22;30162;53.642;10.640;2023-04-25T03:22:17;10.90;87.40
44461;DHT22;30162;53.642;10.640;2023-04-25T03:24:43;11.00;86.70
44461;DHT22;30162;53.642;10.640;2023-04-25T03:27:09;11.10;86.70
44461;DHT22;30162;53.642;10.640;2023-04-25T03:29:34;11.00;86.50
44461;DHT22;30162;53.642;10.640;2023-04-25T03:32:00;10.80;86.20
44461;DHT22;30162;53.642;10.640;2023-04-25T03:34:26;10.80;86.60
44461;DHT22;30162;53.642;10.640;2023-04-25T03:36:51;10.70;87.00
44461;DHT22;30162;53.642;10.640;2023-04-25T03:39:17;10.80;87.10
44461;DHT22;30162;53.642;10.640;2023-04-25T03:41:42;10.80;86.70
44461;DHT22;30162;53.642;10.640;2023-04-25T03:44:08;10.80;86.40
44461;DHT22;30162;53.642;10.640;2023-04-25T03:46:34;10.80;86.30
44461;DHT22;30162;53.642;10.640;2023-04-25T03:48:59;10.60;86.80
44461;DHT22;30162;53.642;10.640;2023-04-25T03:51:25;10.60;85.50
44461;DHT22;30162;53.642;10.640;2023-04-25T03:53:51;10.50;86.00
44461;DHT22;30162;53.642;10.640;2023-04-25T03:56:17;10.20;84.90
44461;DHT22;30162;53.642;10.640;2023-04-25T03:58:43;10.20;85.70
44461;DHT22;30162;53.642;10.640;2023-04-25T04:01:08;9.80;85.70
44461;DHT22;30162;53.642;10.640;2023-04-25T04:03:34;9.90;86.50
44461;DHT22;30162;53.642;10.640;2023-04-25T04:06:02;10.10;86.10
44461;DHT22;30162;53.642;10.640;2023-04-25T04:08:29;10.10;85.90
44461;DHT22;30162;53.642;10.640;2023-04-25T04:10:55;9.80;85.30
44461;DHT22;30162;53.642;10.640;2023-04-25T04:13:20;9.90;85.60
44461;DHT22;30162;53.642;10.640;2023-04-25T04:15:46;10.10;85.70
44461;DHT22;30162;53.642;10.640;2023-04-25T04:18:11;10.20;85.90
44461;DHT22;30162;53.642;10.640;2023-04-25T04:20:37;10.10;85.00
44461;DHT22;30162;53.642;10.640;2023-04-25T04:23:02;10.20;85.50
44461;DHT22;30162;53.642;10.640;2023-04-25T04:25:28;10.10;86.00
44461;DHT22;30162;53.642;10.640;2023-04-25T04:27:54;10.20;85.70
44461;DHT22;30162;53.642;10.640;2023-04-25T04:30:22;10.20;85.00
44461;DHT22;30162;53.642;10.640;2023-04-25T04:32:52;10.10;85.40
44461;DHT22;30162;53.642;10.640;2023-04-25T04:35:17;10.10;85.10
44461;DHT22;30162;53.642;10.640;2023-04-25T04:37:43;10.10;85.10
44461;DHT22;30162;53.642;10.640;2023-04-25T04:40:11;10.00;85.20
44461;DHT22;30162;53.642;10.640;2023-04-25T04:42:36;10.10;85.40
44461;DHT22;30162;53.642;10.640;2023-04-25T04:45:02;10.30;85.00
44461;DHT22;30162;53.642;10.640;2023-04-25T04:47:29;10.30;85.00
44461;DHT22;30162;53.642;10.640;2023-04-25T04:49:57;10.30;85.20
44461;DHT22;30162;53.642;10.640;2023-04-25T04:52:23;10.20;84.40
44461;DHT22;30162;53.642;10.640;2023-04-25T04:54:48;10.20;84.80
44461;DHT22;30162;53.642;10.640;2023-04-25T04:57:14;10.20;84.00
44461;DHT22;30162;53.642;10.640;2023-04-25T04:59:39;10.20;84.40
44461;DHT22;30162;53.642;10.640;2023-04-25T05:02:05;10.30;84.70
44461;DHT22;30162;53.642;10.640;2023-04-25T05:04:31;10.40;84.20
44461;DHT22;30162;53.642;10.640;2023-04-25T05:06:56;10.40;83.70
44461;DHT22;30162;53.642;10.640;2023-04-25T05:09:22;10.40;83.60
44461;DHT22;30162;53.642;10.640;2023-04-25T05:11:51;10.40;83.50
44461;DHT22;30162;53.642;10.640;2023-04-25T05:14:17;10.50;83.90
44461;DHT22;30162;53.642;10.640;2023-04-25T05:16:43;10.60;83.40
44461;DHT22;30162;53.642;10.640;2023-04-25T05:19:09;10.50;83.00
44461;DHT22;30162;53.642;10.640;2023-04-25T05:21:34;10.40;83.10
44461;DHT22;30162;53.642;10.640;2023-04-25T05:24:01;10.50;83.60
44461;DHT22;30162;53.642;10.640;2023-04-25T05:26:26;10.40;81.00
44461;DHT22;30162;53.642;10.640;2023-04-25T05:28:56;10.30;82.80
44461;DHT22;30162;53.642;10.640;2023-04-25T05:31:22;10.40;82.10
44461;DHT22;30162;53.642;10.640;2023-04-25T05:33:47;10.10;81.60
44461;DHT22;30162;53.642;10.640;2023-04-25T05:36:13;10.20;82.00
44461;DHT22;30162;53.642;10.640;2023-04-25T05:38:38;10.40;82.00
44461;DHT22;30162;53.642;10.640;2023-04-25T05:41:04;10.50;82.40
44461;DHT22;30162;53.642;10.640;2023-04-25T05:43:30;10.70;81.30
44461;DHT22;30162;53.642;10.640;2023-04-25T05:45:55;11.00;81.60
44461;DHT22;30162;53.642;10.640;2023-04-25T05:48:21;11.00;80.10
44461;DHT22;30162;53.642;10.640;2023-04-25T05:50:46;11.10;81.00
44461;DHT22;30162;53.642;10.640;2023-04-25T05:53:12;11.30;80.30
44461;DHT22;30162;53.642;10.640;2023-04-25T05:55:38;11.40;79.60
44461;DHT22;30162;53.642;10.640;2023-04-25T05:58:05;11.20;79.20
44461;DHT22;30162;53.642;10.640;2023-04-25T06:00:31;11.20;80.40
44461;DHT22;30162;53.642;10.640;2023-04-25T06:02:57;11.30;80.90
44461;DHT22;30162;53.642;10.640;2023-04-25T06:05:22;11.10;79.20
44461;DHT22;30162;53.642;10.640;2023-04-25T06:07:48;10.60;78.70
44461;DHT22;30162;53.642;10.640;2023-04-25T06:10:13;10.60;79.90
44461;DHT22;30162;53.642;10.640;2023-04-25T06:12:39;10.70;78.60
44461;DHT22;30162;53.642;10.640;2023-04-25T06:15:05;10.90;79.50
44461;DHT22;30162;53.642;10.640;2023-04-25T06:17:31;11.00;79.60
44461;DHT22;30162;53.642;10.640;2023-04-25T06:19:57;10.80;79.30
44461;DHT22;30162;53.642;10.640;2023-04-25T06:22:22;10.80;78.90
44461;DHT22;30162;53.642;10.640;2023-04-25T06:24:48;10.70;79.00
44461;DHT22;30162;53.642;10.640;2023-04-25T06:27:13;10.80;78.80
44461;DHT22;30162;53.642;10.640;2023-04-25T06:29:39;11.00;79.80
44461;DHT22;30162;53.642;10.640;2023-04-25T06:32:04;10.90;79.80
44461;DHT22;30162;53.642;10.640;2023-04-25T06:34:30;10.80;80.80
44461;DHT22;30162;53.642;10.640;2023-04-25T06:36:55;11.10;80.60
44461;DHT22;30162;53.642;10.640;2023-04-25T06:39:21;10.70;79.70
44461;DHT22;30162;53.642;10.640;2023-04-25T06:41:48;10.60;80.60
44461;DHT22;30162;53.642;10.640;2023-04-25T06:44:14;10.90;81.50
44461;DHT22;30162;53.642;10.640;2023-04-25T06:46:40;11.00;80.20
44461;DHT22;30162;53.642;10.640;2023-04-25T06:49:06;11.20;80.10
44461;DHT22;30162;53.642;10.640;2023-04-25T06:51:31;11.00;79.40
44461;DHT22;30162;53.642;10.640;2023-04-25T06:53:57;11.00;80.40
44461;DHT22;30162;53.642;10.640;2023-04-25T06:56:23;11.00;79.40
44461;DHT22;30162;53.642;10.640;2023-04-25T06:58:49;10.90;80.00
44461;DHT22;30162;53.642;10.640;2023-04-25T07:01:14;11.10;79.80
44461;DHT22;30162;53.642;10.640;2023-04-25T07:03:40;11.40;79.20
44461;DHT22;30162;53.642;10.640;2023-04-25T07:06:06;11.50;79.30
44461;DHT22;30162;53.642;10.640;2023-04-25T07:08:31;11.60;78.90
44461;DHT22;30162;53.642;10.640;2023-04-25T07:10:57;11.60;78.90
44461;DHT22;30162;53.642;10.640;2023-04-25T07:13:22;10.80;78.40
44461;DHT22;30162;53.642;10.640;2023-04-25T07:15:48;10.90;78.90
44461;DHT22;30162;53.642;10.640;2023-04-25T07:18:14;11.30;79.70
44461;DHT22;30162;53.642;10.640;2023-04-25T07:20:39;11.50;79.90
44461;DHT22;30162;53.642;10.640;2023-04-25T07:23:05;11.50;78.70
44461;DHT22;30162;53.642;10.640;2023-04-25T07:25:30;11.40;79.60
44461;DHT22;30162;53.642;10.640;2023-04-25T07:27:56;11.40;79.80
44461;DHT22;30162;53.642;10.640;2023-04-25T07:30:22;11.70;80.00
44461;DHT22;30162;53.642;10.640;2023-04-25T07:32:48;11.90;79.50
44461;DHT22;30162;53.642;10.640;2023-04-25T07:35:14;12.10;82.90
44461;DHT22;30162;53.642;10.640;2023-04-25T07:37:40;12.10;78.80
44461;DHT22;30162;53.642;10.640;2023-04-25T07:40:06;11.80;79.00
44461;DHT22;30162;53.642;10.640;2023-04-25T07:42:33;11.70;80.30
44461;DHT22;30162;53.642;10.640;2023-04-25T07:44:58;11.40;81.20
44461;DHT22;30162;53.642;10.640;2023-04-25T07:47:24;11.30;82.20
44461;DHT22;30162;53.642;10.640;2023-04-25T07:49:49;11.30;81.10
44461;DHT22;30162;53.642;10.640;2023-04-25T07:52:15;11.30;81.50
44461;DHT22;30162;53.642;10.640;2023-04-25T07:54:41;11.40;81.70
44461;DHT22;30162;53.642;10.640;2023-04-25T07:57:07;11.40;80.10
44461;DHT22;30162;53.642;10.640;2023-04-25T07:59:32;11.40;80.30
44461;DHT22;30162;53.642;10.640;2023-04-25T08:01:58;11.80;81.00
44461;DHT22;30162;53.642;10.640;2023-04-25T08:04:24;11.90;80.20
44461;DHT22;30162;53.642;10.640;2023-04-25T08:06:50;12.20;80.50
44461;DHT22;30162;53.642;10.640;2023-04-25T08:09:15;12.60;79.50
44461;DHT22;30162;53.642;10.640;2023-04-25T08:11:42;12.80;77.70
44461;DHT22;30162;53.642;10.640;2023-04-25T08:14:08;12.70;77.30
44461;DHT22;30162;53.642;10.640;2023-04-25T08:16:33;12.60;78.70
44461;DHT22;30162;53.642;10.640;2023-04-25T08:18:59;12.70;76.90
44461;DHT22;30162;53.642;10.640;2023-04-25T08:21:25;13.00;77.50
44461;DHT22;30162;53.642;10.640;2023-04-25T08:23:52;13.10;75.40
44461;DHT22;30162;53.642;10.640;2023-04-25T08:26:18;13.30;76.60
44461;DHT22;30162;53.642;10.640;2023-04-25T08:28:43;13.20;76.70
44461;DHT22;30162;53.642;10.640;2023-04-25T08:31:09;13.40;74.50
44461;DHT22;30162;53.642;10.640;2023-04-25T08:33:34;13.60;74.10
44461;DHT22;30162;53.642;10.640;2023-04-25T08:36:00;14.40;74.20
44461;DHT22;30162;53.642;10.640;2023-04-25T08:38:25;13.80;71.50
44461;DHT22;30162;53.642;10.640;2023-04-25T08:40:51;14.10;72.40
44461;DHT22;30162;53.642;10.640;2023-04-25T08:43:19;14.60;72.70
44461;DHT22;30162;53.642;10.640;2023-04-25T08:45:45;14.80;70.50
44461;DHT22;30162;53.642;10.640;2023-04-25T08:48:13;14.60;71.00
44461;DHT22;30162;53.642;10.640;2023-04-25T08:50:40;14.50;70.60
44461;DHT22;30162;53.642;10.640;2023-04-25T08:53:12;13.90;70.40
44461;DHT22;30162;53.642;10.640;2023-04-25T08:55:42;12.80;70.70
44461;DHT22;30162;53.642;10.640;2023-04-25T08:58:09;12.50;71.20
44461;DHT22;30162;53.642;10.640;2023-04-25T09:00:36;12.40;73.80
44461;DHT22;30162;53.642;10.640;2023-04-25T09:03:01;12.70;74.40
44461;DHT22;30162;53.642;10.640;2023-04-25T09:05:28;12.80;73.60
44461;DHT22;30162;53.642;10.640;2023-04-25T09:07:54;12.70;74.80
44461;DHT22;30162;53.642;10.640;2023-04-25T09:10:21;12.50;77.90
44461;DHT22;30162;53.642;10.640;2023-04-25T09:13:05;12.40;77.80
44461;DHT22;30162;53.642;10.640;2023-04-25T09:15:32;12.40;78.20
44461;DHT22;30162;53.642;10.640;2023-04-25T09:17:59;12.50;79.10
44461;DHT22;30162;53.642;10.640;2023-04-25T09:20:25;13.00;78.30
44461;DHT22;30162;53.642;10.640;2023-04-25T09:23:05;13.00;76.00
44461;DHT22;30162;53.642;10.640;2023-04-25T09:25:35;13.70;75.50
44461;DHT22;30162;53.642;10.640;2023-04-25T09:28:04;14.00;73.10
44461;DHT22;30162;53.642;10.640;2023-04-25T09:30:32;14.10;74.10
44461;DHT22;30162;53.642;10.640;2023-04-25T09:33:07;14.40;73.10
44461;DHT22;30162;53.642;10.640;2023-04-25T09:35:40;14.60;71.40
44461;DHT22;30162;53.642;10.640;2023-04-25T09:38:14;14.90;72.20
44461;DHT22;30162;53.642;10.640;2023-04-25T09:40:44;15.30;71.00
44461;DHT22;30162;53.642;10.640;2023-04-25T09:43:20;15.20;70.30
44461;DHT22;30162;53.642;10.640;2023-04-25T09:45:46;15.30;70.60
44461;DHT22;30162;53.642;10.640;2023-04-25T09:48:17;14.90;70.80
44461;DHT22;30162;53.642;10.640;2023-04-25T09:50:44;14.70;69.80
44461;DHT22;30162;53.642;10.640;2023-04-25T09:53:09;14.00;69.80
44461;DHT22;30162;53.642;10.640;2023-04-25T09:55:35;13.70;70.00
44461;DHT22;30162;53.642;10.640;2023-04-25T09:58:05;13.40;70.00
44461;DHT22;30162;53.642;10.640;2023-04-25T10:00:33;13.60;69.30
44461;DHT22;30162;53.642;10.640;2023-04-25T10:03:01;13.70;67.80
44461;DHT22;30162;53.642;10.640;2023-04-25T10:05:32;13.70;66.90
44461;DHT22;30162;53.642;10.640;2023-04-25T10:08:00;13.80;67.40
44461;DHT22;30162;53.642;10.640;2023-04-25T10:10:28;14.00;69.10
44461;DHT22;30162;53.642;10.640;2023-04-25T10:12:54;14.00;67.10
44461;DHT22;30162;53.642;10.640;2023-04-25T10:15:21;13.90;66.10
44461;DHT22;30162;53.642;10.640;2023-04-25T10:17:49;13.90;66.40
44461;DHT22;30162;53.642;10.640;2023-04-25T10:20:14;14.40;64.30
44461;DHT22;30162;53.642;10.640;2023-04-25T10:22:47;14.60;63.00
44461;DHT22;30162;53.642;10.640;2023-04-25T10:25:14;14.60;64.20
44461;DHT22;30162;53.642;10.640;2023-04-25T10:27:40;14.80;63.30
44461;DHT22;30162;53.642;10.640;2023-04-25T10:30:11;14.70;63.20
44461;DHT22;30162;53.642;10.640;2023-04-25T10:32:39;14.90;63.30
44461;DHT22;30162;53.642;10.640;2023-04-25T10:35:19;15.00;63.30
44461;DHT22;30162;53.642;10.640;2023-04-25T10:38:04;14.50;62.60
44461;DHT22;30162;53.642;10.640;2023-04-25T10:40:31;14.20;64.00
44461;DHT22;30162;53.642;10.640;2023-04-25T10:43:36;14.30;64.40
44461;DHT22;30162;53.642;10.640;2023-04-25T10:46:29;14.30;65.70
44461;DHT22;30162;53.642;10.640;2023-04-25T10:48:58;14.40;67.70
44461;DHT22;30162;53.642;10.640;2023-04-25T10:51:26;14.50;69.00
44461;DHT22;30162;53.642;10.640;2023-04-25T10:56:25;15.60;68.70
44461;DHT22;30162;53.642;10.640;2023-04-25T10:58:50;15.70;67.40
44461;DHT22;30162;53.642;10.640;2023-04-25T11:01:21;15.60;65.00
44461;DHT22;30162;53.642;10.640;2023-04-25T11:03:47;14.60;66.40
44461;DHT22;30162;53.642;10.640;2023-04-25T11:06:42;13.90;67.60
44461;DHT22;30162;53.642;10.640;2023-04-25T11:09:11;13.40;68.70
44461;DHT22;30162;53.642;10.640;2023-04-25T11:11:40;13.30;71.50
44461;DHT22;30162;53.642;10.640;2023-04-25T11:14:06;13.10;71.70
44461;DHT22;30162;53.642;10.640;2023-04-25T11:16:31;13.30;71.40
44461;DHT22;30162;53.642;10.640;2023-04-25T11:18:58;13.50;71.00
44461;DHT22;30162;53.642;10.640;2023-04-25T11:21:25;13.70;70.50
44461;DHT22;30162;53.642;10.640;2023-04-25T11:23:56;14.20;71.40
44461;DHT22;30162;53.642;10.640;2023-04-25T11:26:22;14.80;69.30
44461;DHT22;30162;53.642;10.640;2023-04-25T11:28:49;14.70;67.80
44461;DHT22;30162;53.642;10.640;2023-04-25T11:31:14;14.50;69.20
44461;DHT22;30162;53.642;10.640;2023-04-25T11:33:40;13.80;70.90
44461;DHT22;30162;53.642;10.640;2023-04-25T11:36:06;13.50;73.80
44461;DHT22;30162;53.642;10.640;2023-04-25T11:38:32;13.10;73.00
44461;DHT22;30162;53.642;10.640;2023-04-25T11:40:57;12.50;71.90
44461;DHT22;30162;53.642;10.640;2023-04-25T11:43:23;12.60;75.50
44461;DHT22;30162;53.642;10.640;2023-04-25T11:45:49;12.70;71.00
44461;DHT22;30162;53.642;10.640;2023-04-25T11:48:16;13.10;73.70
44461;DHT22;30162;53.642;10.640;2023-04-25T11:50:42;13.80;72.50
44461;DHT22;30162;53.642;10.640;2023-04-25T11:53:08;14.00;68.50
44461;DHT22;30162;53.642;10.640;2023-04-25T11:55:34;14.20;70.70
44461;DHT22;30162;53.642;10.640;2023-04-25T11:58:00;14.40;67.40
44461;DHT22;30162;53.642;10.640;2023-04-25T12:00:27;14.30;65.50
44461;DHT22;30162;53.642;10.640;2023-04-25T12:02:53;14.20;65.80
44461;DHT22;30162;53.642;10.640;2023-04-25T12:05:21;14.40;65.30
44461;DHT22;30162;53.642;10.640;2023-04-25T12:07:48;14.70;69.40
44461;DHT22;30162;53.642;10.640;2023-04-25T12:10:16;15.40;65.70
44461;DHT22;30162;53.642;10.640;2023-04-25T12:12:42;15.70;64.90
44461;DHT22;30162;53.642;10.640;2023-04-25T12:15:16;15.60;66.80
44461;DHT22;30162;53.642;10.640;2023-04-25T12:17:49;15.40;65.90
44461;DHT22;30162;53.642;10.640;2023-04-25T12:20:18;14.50;68.90
44461;DHT22;30162;53.642;10.640;2023-04-25T12:22:45;13.90;70.50
44461;DHT22;30162;53.642;10.640;2023-04-25T12:25:34;13.60;72.00
44461;DHT22;30162;53.642;10.640;2023-04-25T12:33:17;13.10;72.20
44461;DHT22;30162;53.642;10.640;2023-04-25T12:35:43;13.20;73.20
44461;DHT22;30162;53.642;10.640;2023-04-25T12:38:08;13.30;71.90
44461;DHT22;30162;53.642;10.640;2023-04-25T12:40:34;13.70;72.40
44461;DHT22;30162;53.642;10.640;2023-04-25T12:42:59;14.10;72.00
44461;DHT22;30162;53.642;10.640;2023-04-25T12:45:25;14.60;71.10
44461;DHT22;30162;53.642;10.640;2023-04-25T12:47:51;15.20;69.20
44461;DHT22;30162;53.642;10.640;2023-04-25T12:50:16;15.10;66.90
44461;DHT22;30162;53.642;10.640;2023-04-25T12:52:42;15.30;68.30
44461;DHT22;30162;53.642;10.640;2023-04-25T12:55:08;14.90;68.00
44461;DHT22;30162;53.642;10.640;2023-04-25T12:57:33;14.70;66.50
44461;DHT22;30162;53.642;10.640;2023-04-25T12:59:59;14.40;68.80
44461;DHT22;30162;53.642;10.640;2023-04-25T13:02:24;14.60;69.20
44461;DHT22;30162;53.642;10.640;2023-04-25T13:04:50;15.00;66.00
44461;DHT22;30162;53.642;10.640;2023-04-25T13:07:16;15.00;64.50
44461;DHT22;30162;53.642;10.640;2023-04-25T13:09:42;14.30;62.00
44461;DHT22;30162;53.642;10.640;2023-04-25T13:12:07;13.60;65.60
44461;DHT22;30162;53.642;10.640;2023-04-25T13:14:33;13.40;66.10
44461;DHT22;30162;53.642;10.640;2023-04-25T13:16:59;13.60;67.30
44461;DHT22;30162;53.642;10.640;2023-04-25T13:19:24;13.50;68.00
44461;DHT22;30162;53.642;10.640;2023-04-25T13:21:51;13.30;68.80
44461;DHT22;30162;53.642;10.640;2023-04-25T13:24:16;13.30;69.30
44461;DHT22;30162;53.642;10.640;2023-04-25T13:26:43;13.10;67.90
44461;DHT22;30162;53.642;10.640;2023-04-25T13:29:09;13.00;68.20
44461;DHT22;30162;53.642;10.640;2023-04-25T13:31:34;13.20;69.00
44461;DHT22;30162;53.642;10.640;2023-04-25T13:34:00;13.90;69.30
44461;DHT22;30162;53.642;10.640;2023-04-25T13:36:25;14.00;66.20
44461;DHT22;30162;53.642;10.640;2023-04-25T13:38:51;14.30;65.50
44461;DHT22;30162;53.642;10.640;2023-04-25T13:41:16;14.00;65.00
44461;DHT22;30162;53.642;10.640;2023-04-25T13:43:45;14.00;65.10
44461;DHT22;30162;53.642;10.640;2023-04-25T13:46:11;13.90;64.80
44461;DHT22;30162;53.642;10.640;2023-04-25T13:48:38;13.90;65.40
44461;DHT22;30162;53.642;10.640;2023-04-25T13:51:04;14.40;65.50
44461;DHT22;30162;53.642;10.640;2023-04-25T13:53:29;14.90;64.80
44461;DHT22;30162;53.642;10.640;2023-04-25T13:55:55;15.30;65.00
44461;DHT22;30162;53.642;10.640;2023-04-25T13:58:20;15.50;62.50
44461;DHT22;30162;53.642;10.640;2023-04-25T14:00:46;14.60;62.40
44461;DHT22;30162;53.642;10.640;2023-04-25T14:03:12;14.60;63.50
44461;DHT22;30162;53.642;10.640;2023-04-25T14:05:37;14.40;64.10
44461;DHT22;30162;53.642;10.640;2023-04-25T14:08:07;14.50;64.80
44461;DHT22;30162;53.642;10.640;2023-04-25T14:10:33;14.80;64.70
44461;DHT22;30162;53.642;10.640;2023-04-25T14:12:59;15.10;63.60
44461;DHT22;30162;53.642;10.640;2023-04-25T14:15:25;14.80;64.60
44461;DHT22;30162;53.642;10.640;2023-04-25T14:17:51;14.70;64.60
44461;DHT22;30162;53.642;10.640;2023-04-25T14:20:17;14.70;63.70
44461;DHT22;30162;53.642;10.640;2023-04-25T14:22:45;14.50;64.50
44461;DHT22;30162;53.642;10.640;2023-04-25T14:25:11;14.90;64.40
44461;DHT22;30162;53.642;10.640;2023-04-25T14:27:37;15.10;65.20
44461;DHT22;30162;53.642;10.640;2023-04-25T14:30:02;15.00;65.40
44461;DHT22;30162;53.642;10.640;2023-04-25T14:32:29;15.00;65.80
44461;DHT22;30162;53.642;10.640;2023-04-25T14:34:57;14.30;67.60
44461;DHT22;30162;53.642;10.640;2023-04-25T14:37:22;14.20;67.90
44461;DHT22;30162;53.642;10.640;2023-04-25T14:39:48;14.20;68.00
44461;DHT22;30162;53.642;10.640;2023-04-25T14:42:13;14.10;69.70
44461;DHT22;30162;53.642;10.640;2023-04-25T14:44:39;14.00;70.60
44461;DHT22;30162;53.642;10.640;2023-04-25T14:47:04;13.60;71.00
44461;DHT22;30162;53.642;10.640;2023-04-25T14:49:32;13.80;71.20
44461;DHT22;30162;53.642;10.640;2023-04-25T14:51:57;13.70;70.50
44461;DHT22;30162;53.642;10.640;2023-04-25T14:54:23;13.30;70.20
44461;DHT22;30162;53.642;10.640;2023-04-25T14:56:48;13.00;71.50
44461;DHT22;30162;53.642;10.640;2023-04-25T14:59:14;13.00;71.90
44461;DHT22;30162;53.642;10.640;2023-04-25T15:01:39;13.30;72.20
44461;DHT22;30162;53.642;10.640;2023-04-25T15:04:05;13.60;68.40
44461;DHT22;30162;53.642;10.640;2023-04-25T15:06:31;13.50;67.10
44461;DHT22;30162;53.642;10.640;2023-04-25T15:08:56;13.50;67.70
44461;DHT22;30162;53.642;10.640;2023-04-25T15:11:22;13.50;68.60
44461;DHT22;30162;53.642;10.640;2023-04-25T15:13:48;13.70;69.90
44461;DHT22;30162;53.642;10.640;2023-04-25T15:16:13;13.70;68.60
44461;DHT22;30162;53.642;10.640;2023-04-25T15:18:39;13.50;67.90
44461;DHT22;30162;53.642;10.640;2023-04-25T15:21:04;13.60;68.60